sensor_id;sensor_type;location;lat;lon;timestamp;P1;durP1;ratioP1;P2;durP2;ratioP2
20207;SDS011;10263;48.716;8.760;2023-04-03T00:02:02;3.10;;;1.93;;
20207;SDS011;10263;48.716;8.760;2023-04-03T00:04:29;2.17;;;1.80;;
20207;SDS011;10263;48.716;8.760;2023-04-03T00:06:57;2.40;;;2.10;;
20207;SDS011;10263;48.716;8.760;2023-04-03T00:09:24;1.90;;;1.70;;
20207;SDS011;10263;48.716;8.760;2023-04-03T00:11:51;2.30;;;2.10;;
20207;SDS011;10263;48.716;8.760;2023-04-03T00:14:18;2.67;;;2.00;;
20207;SDS011;10263;48.716;8.760;2023-04-03T00:16:45;3.30;;;2.10;;
20207;SDS011;10263;48.716;8.760;2023-04-03T00:19:12;3.20;;;2.63;;
20207;SDS011;10263;48.716;8.760;2023-04-03T00:21:39;3.03;;;2.00;;
20207;SDS011;10263;48.716;8.760;2023-04-03T00:24:08;2.37;;;1.93;;
20207;SDS011;10263;48.716;8.760;2023-04-03T00:26:34;4.27;;;2.33;;
20207;SDS011;10263;48.716;8.760;2023-04-03T00:29:02;4.67;;;2.43;;
20207;SDS011;10263;48.716;8.760;2023-04-03T00:31:29;3.10;;;1.83;;
20207;SDS011;10263;48.716;8.760;2023-04-03T00:33:56;6.50;;;2.43;;
20207;SDS011;10263;48.716;8.760;2023-04-03T00:36:23;2.70;;;2.30;;
20207;SDS011;10263;48.716;8.760;2023-04-03T00:38:50;2.83;;;2.63;;
20207;SDS011;10263;48.716;8.760;2023-04-03T00:41:18;2.33;;;1.93;;
20207;SDS011;10263;48.716;8.760;2023-04-03T00:43:46;2.80;;;2.40;;
20207;SDS011;10263;48.716;8.760;2023-04-03T00:46:13;2.50;;;2.30;;
20207;SDS011;10263;48.716;8.760;2023-04-03T00:48:40;2.20;;;1.87;;
20207;SDS011;10263;48.716;8.760;2023-04-03T00:51:09;3.13;;;2.27;;
20207;SDS011;10263;48.716;8.760;2023-04-03T00:53:40;3.10;;;2.27;;
20207;SDS011;10263;48.716;8.760;2023-04-03T00:56:11;4.17;;;2.43;;
20207;SDS011;10263;48.716;8.760;2023-04-03T00:58:43;3.37;;;2.30;;
20207;SDS011;10263;48.716;8.760;2023-04-03T01:01:16;3.23;;;2.07;;
20207;SDS011;10263;48.716;8.760;2023-04-03T01:03:48;2.93;;;2.10;;
20207;SDS011;10263;48.716;8.760;2023-04-03T01:06:16;1.93;;;1.73;;
20207;SDS011;10263;48.716;8.760;2023-04-03T01:08:46;2.43;;;2.00;;
20207;SDS011;10263;48.716;8.760;2023-04-03T01:11:15;2.90;;;2.20;;
20207;SDS011;10263;48.716;8.760;2023-04-03T01:13:44;4.20;;;2.17;;
20207;SDS011;10263;48.716;8.760;2023-04-03T01:16:12;3.30;;;2.70;;
20207;SDS011;10263;48.716;8.760;2023-04-03T01:18:39;3.60;;;2.40;;
20207;SDS011;10263;48.716;8.760;2023-04-03T01:24:22;4.20;;;2.10;;
20207;SDS011;10263;48.716;8.760;2023-04-03T01:26:56;2.40;;;2.10;;
20207;SDS011;10263;48.716;8.760;2023-04-03T01:29:24;4.80;;;2.17;;
20207;SDS011;10263;48.716;8.760;2023-04-03T01:31:53;3.00;;;2.50;;
20207;SDS011;10263;48.716;8.760;2023-04-03T01:34:22;3.20;;;2.60;;
20207;SDS011;10263;48.716;8.760;2023-04-03T01:36:50;3.00;;;2.10;;
20207;SDS011;10263;48.716;8.760;2023-04-03T01:39:17;2.30;;;1.83;;
20207;SDS011;10263;48.716;8.760;2023-04-03T01:41:44;4.00;;;2.43;;
20207;SDS011;10263;48.716;8.760;2023-04-03T01:44:18;3.57;;;2.27;;
20207;SDS011;10263;48.716;8.760;2023-04-03T01:46:45;8.80;;;1.93;;
20207;SDS011;10263;48.716;8.760;2023-04-03T01:49:14;3.30;;;2.40;;
20207;SDS011;10263;48.716;8.760;2023-04-03T01:51:41;3.20;;;2.20;;
20207;SDS011;10263;48.716;8.760;2023-04-03T01:54:08;2.57;;;2.37;;
20207;SDS011;10263;48.716;8.760;2023-04-03T01:56:35;2.20;;;2.00;;
20207;SDS011;10263;48.716;8.760;2023-04-03T01:59:04;2.23;;;1.90;;
20207;SDS011;10263;48.716;8.760;2023-04-03T02:01:31;2.73;;;2.27;;
20207;SDS011;10263;48.716;8.760;2023-04-03T02:03:59;3.37;;;2.37;;
20207;SDS011;10263;48.716;8.760;2023-04-03T02:06:27;4.50;;;2.47;;
20207;SDS011;10263;48.716;8.760;2023-04-03T02:08:54;1.90;;;1.70;;
20207;SDS011;10263;48.716;8.760;2023-04-03T02:11:21;3.63;;;2.13;;
20207;SDS011;10263;48.716;8.760;2023-04-03T02:13:49;3.77;;;1.93;;
20207;SDS011;10263;48.716;8.760;2023-04-03T02:16:16;3.53;;;2.23;;
20207;SDS011;10263;48.716;8.760;2023-04-03T02:18:43;3.77;;;2.40;;
20207;SDS011;10263;48.716;8.760;2023-04-03T02:21:10;3.77;;;2.03;;
20207;SDS011;10263;48.716;8.760;2023-04-03T02:23:38;6.10;;;2.23;;
20207;SDS011;10263;48.716;8.760;2023-04-03T02:26:06;2.87;;;2.17;;
20207;SDS011;10263;48.716;8.760;2023-04-03T02:28:34;4.27;;;2.43;;
20207;SDS011;10263;48.716;8.760;2023-04-03T02:31:02;4.80;;;2.50;;
20207;SDS011;10263;48.716;8.760;2023-04-03T02:33:29;2.87;;;2.17;;
20207;SDS011;10263;48.716;8.760;2023-04-03T02:35:57;2.13;;;1.67;;
20207;SDS011;10263;48.716;8.760;2023-04-03T02:38:25;2.43;;;1.87;;
20207;SDS011;10263;48.716;8.760;2023-04-03T02:40:55;3.80;;;2.43;;
20207;SDS011;10263;48.716;8.760;2023-04-03T02:43:26;2.40;;;2.00;;
20207;SDS011;10263;48.716;8.760;2023-04-03T02:45:53;11.67;;;2.47;;
20207;SDS011;10263;48.716;8.760;2023-04-03T02:48:20;2.53;;;1.83;;
20207;SDS011;10263;48.716;8.760;2023-04-03T02:50:47;4.93;;;2.03;;
20207;SDS011;10263;48.716;8.760;2023-04-03T02:53:15;3.33;;;2.37;;
20207;SDS011;10263;48.716;8.760;2023-04-03T02:55:42;3.17;;;2.00;;
20207;SDS011;10263;48.716;8.760;2023-04-03T02:58:10;2.57;;;2.37;;
20207;SDS011;10263;48.716;8.760;2023-04-03T03:00:37;3.53;;;2.20;;
20207;SDS011;10263;48.716;8.760;2023-04-03T03:03:04;3.70;;;2.53;;
20207;SDS011;10263;48.716;8.760;2023-04-03T03:05:32;3.30;;;1.87;;
20207;SDS011;10263;48.716;8.760;2023-04-03T03:07:59;3.87;;;2.40;;
20207;SDS011;10263;48.716;8.760;2023-04-03T03:10:26;2.97;;;2.40;;
20207;SDS011;10263;48.716;8.760;2023-04-03T03:12:53;2.67;;;2.33;;
20207;SDS011;10263;48.716;8.760;2023-04-03T03:15:21;3.57;;;2.30;;
20207;SDS011;10263;48.716;8.760;2023-04-03T03:17:48;3.83;;;2.43;;
20207;SDS011;10263;48.716;8.760;2023-04-03T03:20:15;3.37;;;2.50;;
20207;SDS011;10263;48.716;8.760;2023-04-03T03:22:43;3.17;;;2.37;;
20207;SDS011;10263;48.716;8.760;2023-04-03T03:25:10;4.03;;;2.30;;
20207;SDS011;10263;48.716;8.760;2023-04-03T03:27:37;3.07;;;2.03;;
20207;SDS011;10263;48.716;8.760;2023-04-03T03:30:05;2.10;;;1.90;;
20207;SDS011;10263;48.716;8.760;2023-04-03T03:32:34;2.50;;;2.17;;
20207;SDS011;10263;48.716;8.760;2023-04-03T03:35:01;3.03;;;2.63;;
20207;SDS011;10263;48.716;8.760;2023-04-03T03:37:28;4.57;;;2.60;;
20207;SDS011;10263;48.716;8.760;2023-04-03T03:39:55;2.90;;;2.50;;
20207;SDS011;10263;48.716;8.760;2023-04-03T03:42:22;2.83;;;2.20;;
20207;SDS011;10263;48.716;8.760;2023-04-03T03:44:49;2.70;;;2.50;;
20207;SDS011;10263;48.716;8.760;2023-04-03T03:47:18;3.23;;;2.40;;
20207;SDS011;10263;48.716;8.760;2023-04-03T03:49:46;2.10;;;1.90;;
20207;SDS011;10263;48.716;8.760;2023-04-03T03:52:14;3.07;;;2.10;;
20207;SDS011;10263;48.716;8.760;2023-04-03T03:54:42;3.63;;;2.53;;
20207;SDS011;10263;48.716;8.760;2023-04-03T03:57:09;3.50;;;2.23;;
20207;SDS011;10263;48.716;8.760;2023-04-03T03:59:37;2.50;;;2.13;;
20207;SDS011;10263;48.716;8.760;2023-04-03T04:02:06;2.50;;;2.30;;
20207;SDS011;10263;48.716;8.760;2023-04-03T04:04:33;4.77;;;2.40;;
20207;SDS011;10263;48.716;8.760;2023-04-03T04:07:01;4.27;;;2.30;;
20207;SDS011;10263;48.716;8.760;2023-04-03T04:09:30;3.07;;;2.60;;
20207;SDS011;10263;48.716;8.760;2023-04-03T04:11:57;2.87;;;2.20;;
20207;SDS011;10263;48.716;8.760;2023-04-03T04:14:26;3.83;;;2.43;;
20207;SDS011;10263;48.716;8.760;2023-04-03T04:16:53;2.23;;;2.00;;
20207;SDS011;10263;48.716;8.760;2023-04-03T04:19:24;4.07;;;2.60;;
20207;SDS011;10263;48.716;8.760;2023-04-03T04:21:51;2.70;;;2.00;;
20207;SDS011;10263;48.716;8.760;2023-04-03T04:24:19;3.00;;;2.10;;
20207;SDS011;10263;48.716;8.760;2023-04-03T04:26:49;2.97;;;2.30;;
20207;SDS011;10263;48.716;8.760;2023-04-03T04:29:17;3.60;;;2.23;;
20207;SDS011;10263;48.716;8.760;2023-04-03T04:31:47;4.30;;;2.30;;
20207;SDS011;10263;48.716;8.760;2023-04-03T04:34:15;3.27;;;2.20;;
20207;SDS011;10263;48.716;8.760;2023-04-03T04:36:42;3.07;;;2.37;;
20207;SDS011;10263;48.716;8.760;2023-04-03T04:39:09;2.60;;;1.80;;
20207;SDS011;10263;48.716;8.760;2023-04-03T04:41:38;2.40;;;2.03;;
20207;SDS011;10263;48.716;8.760;2023-04-03T04:44:05;2.17;;;1.97;;
20207;SDS011;10263;48.716;8.760;2023-04-03T04:46:32;2.43;;;2.03;;
20207;SDS011;10263;48.716;8.760;2023-04-03T04:49:01;1.80;;;1.60;;
20207;SDS011;10263;48.716;8.760;2023-04-03T04:51:29;2.53;;;2.17;;
20207;SDS011;10263;48.716;8.760;2023-04-03T04:53:57;2.00;;;1.80;;
20207;SDS011;10263;48.716;8.760;2023-04-03T04:56:24;3.43;;;1.80;;
20207;SDS011;10263;48.716;8.760;2023-04-03T04:58:55;3.57;;;2.30;;
20207;SDS011;10263;48.716;8.760;2023-04-03T05:01:22;5.17;;;2.33;;
20207;SDS011;10263;48.716;8.760;2023-04-03T05:03:59;2.23;;;1.87;;
20207;SDS011;10263;48.716;8.760;2023-04-03T05:06:26;2.63;;;2.20;;
20207;SDS011;10263;48.716;8.760;2023-04-03T05:08:55;3.93;;;2.43;;
20207;SDS011;10263;48.716;8.760;2023-04-03T05:11:22;3.73;;;1.83;;
20207;SDS011;10263;48.716;8.760;2023-04-03T05:13:51;3.10;;;1.93;;
20207;SDS011;10263;48.716;8.760;2023-04-03T05:16:22;2.40;;;2.10;;
20207;SDS011;10263;48.716;8.760;2023-04-03T05:18:49;2.73;;;2.00;;
20207;SDS011;10263;48.716;8.760;2023-04-03T05:21:19;2.27;;;2.00;;
20207;SDS011;10263;48.716;8.760;2023-04-03T05:23:49;2.73;;;2.03;;
20207;SDS011;10263;48.716;8.760;2023-04-03T05:26:16;1.97;;;1.67;;
20207;SDS011;10263;48.716;8.760;2023-04-03T05:28:46;2.33;;;1.90;;
20207;SDS011;10263;48.716;8.760;2023-04-03T05:31:14;2.37;;;1.97;;
20207;SDS011;10263;48.716;8.760;2023-04-03T05:33:43;2.67;;;2.03;;
20207;SDS011;10263;48.716;8.760;2023-04-03T05:36:15;3.27;;;2.20;;
20207;SDS011;10263;48.716;8.760;2023-04-03T05:38:45;6.27;;;2.50;;
20207;SDS011;10263;48.716;8.760;2023-04-03T05:41:13;3.60;;;2.13;;
20207;SDS011;10263;48.716;8.760;2023-04-03T05:43:43;4.57;;;2.33;;
20207;SDS011;10263;48.716;8.760;2023-04-03T05:46:10;3.60;;;2.10;;
20207;SDS011;10263;48.716;8.760;2023-04-03T05:48:39;3.20;;;1.90;;
20207;SDS011;10263;48.716;8.760;2023-04-03T05:51:14;2.60;;;2.10;;
20207;SDS011;10263;48.716;8.760;2023-04-03T05:53:43;2.50;;;2.30;;
20207;SDS011;10263;48.716;8.760;2023-04-03T05:56:10;2.17;;;1.97;;
20207;SDS011;10263;48.716;8.760;2023-04-03T05:58:39;2.10;;;1.90;;
20207;SDS011;10263;48.716;8.760;2023-04-03T06:01:06;2.17;;;1.90;;
20207;SDS011;10263;48.716;8.760;2023-04-03T06:03:34;2.53;;;2.10;;
20207;SDS011;10263;48.716;8.760;2023-04-03T06:06:02;5.20;;;1.97;;
20207;SDS011;10263;48.716;8.760;2023-04-03T06:08:32;2.00;;;1.80;;
20207;SDS011;10263;48.716;8.760;2023-04-03T06:11:00;2.20;;;2.00;;
20207;SDS011;10263;48.716;8.760;2023-04-03T06:13:28;2.10;;;1.90;;
20207;SDS011;10263;48.716;8.760;2023-04-03T06:15:55;2.67;;;1.73;;
20207;SDS011;10263;48.716;8.760;2023-04-03T06:18:23;4.43;;;2.00;;
20207;SDS011;10263;48.716;8.760;2023-04-03T06:20:50;1.70;;;1.60;;
20207;SDS011;10263;48.716;8.760;2023-04-03T06:23:18;2.17;;;1.90;;
20207;SDS011;10263;48.716;8.760;2023-04-03T06:25:46;4.93;;;2.00;;
20207;SDS011;10263;48.716;8.760;2023-04-03T06:28:13;4.57;;;2.00;;
20207;SDS011;10263;48.716;8.760;2023-04-03T06:30:40;2.00;;;1.80;;
20207;SDS011;10263;48.716;8.760;2023-04-03T06:33:07;2.90;;;2.30;;
20207;SDS011;10263;48.716;8.760;2023-04-03T06:35:34;3.50;;;1.90;;
20207;SDS011;10263;48.716;8.760;2023-04-03T06:38:03;1.80;;;1.60;;
20207;SDS011;10263;48.716;8.760;2023-04-03T06:40:34;2.27;;;2.07;;
20207;SDS011;10263;48.716;8.760;2023-04-03T06:43:02;1.90;;;1.77;;
20207;SDS011;10263;48.716;8.760;2023-04-03T06:45:30;1.53;;;1.43;;
20207;SDS011;10263;48.716;8.760;2023-04-03T06:47:57;2.37;;;1.87;;
20207;SDS011;10263;48.716;8.760;2023-04-03T06:50:24;1.70;;;1.57;;
20207;SDS011;10263;48.716;8.760;2023-04-03T06:52:51;3.07;;;1.80;;
20207;SDS011;10263;48.716;8.760;2023-04-03T06:55:18;2.00;;;1.70;;
20207;SDS011;10263;48.716;8.760;2023-04-03T06:57:45;4.00;;;1.93;;
20207;SDS011;10263;48.716;8.760;2023-04-03T07:00:14;1.50;;;1.40;;
20207;SDS011;10263;48.716;8.760;2023-04-03T07:02:42;2.17;;;1.67;;
20207;SDS011;10263;48.716;8.760;2023-04-03T07:05:09;2.93;;;1.67;;
20207;SDS011;10263;48.716;8.760;2023-04-03T07:07:36;1.73;;;1.63;;
20207;SDS011;10263;48.716;8.760;2023-04-03T07:10:04;2.90;;;1.50;;
20207;SDS011;10263;48.716;8.760;2023-04-03T07:12:32;1.80;;;1.53;;
20207;SDS011;10263;48.716;8.760;2023-04-03T07:14:59;1.83;;;1.50;;
20207;SDS011;10263;48.716;8.760;2023-04-03T07:17:27;2.77;;;1.67;;
20207;SDS011;10263;48.716;8.760;2023-04-03T07:19:54;2.47;;;1.80;;
20207;SDS011;10263;48.716;8.760;2023-04-03T07:22:21;1.50;;;1.40;;
20207;SDS011;10263;48.716;8.760;2023-04-03T07:24:48;2.23;;;1.60;;
20207;SDS011;10263;48.716;8.760;2023-04-03T07:27:15;1.47;;;1.37;;
20207;SDS011;10263;48.716;8.760;2023-04-03T07:29:42;1.90;;;1.70;;
20207;SDS011;10263;48.716;8.760;2023-04-03T07:32:10;4.57;;;1.83;;
20207;SDS011;10263;48.716;8.760;2023-04-03T07:34:38;1.93;;;1.77;;
20207;SDS011;10263;48.716;8.760;2023-04-03T07:37:05;1.70;;;1.60;;
20207;SDS011;10263;48.716;8.760;2023-04-03T07:39:32;2.37;;;2.10;;
20207;SDS011;10263;48.716;8.760;2023-04-03T07:41:59;2.97;;;1.60;;
20207;SDS011;10263;48.716;8.760;2023-04-03T07:44:27;2.70;;;2.20;;
20207;SDS011;10263;48.716;8.760;2023-04-03T07:46:55;3.67;;;1.73;;
20207;SDS011;10263;48.716;8.760;2023-04-03T07:49:22;4.27;;;1.93;;
20207;SDS011;10263;48.716;8.760;2023-04-03T07:51:50;1.73;;;1.37;;
20207;SDS011;10263;48.716;8.760;2023-04-03T07:54:18;3.27;;;1.83;;
20207;SDS011;10263;48.716;8.760;2023-04-03T07:56:45;3.87;;;1.70;;
20207;SDS011;10263;48.716;8.760;2023-04-03T07:59:12;1.93;;;1.77;;
20207;SDS011;10263;48.716;8.760;2023-04-03T08:01:39;2.30;;;2.10;;
20207;SDS011;10263;48.716;8.760;2023-04-03T08:04:06;2.50;;;2.30;;
20207;SDS011;10263;48.716;8.760;2023-04-03T08:06:33;2.10;;;1.83;;
20207;SDS011;10263;48.716;8.760;2023-04-03T08:09:03;2.33;;;1.70;;
20207;SDS011;10263;48.716;8.760;2023-04-03T08:11:30;1.60;;;1.50;;
20207;SDS011;10263;48.716;8.760;2023-04-03T08:13:57;3.30;;;1.80;;
20207;SDS011;10263;48.716;8.760;2023-04-03T08:16:24;2.37;;;1.70;;
20207;SDS011;10263;48.716;8.760;2023-04-03T08:18:52;2.87;;;1.70;;
20207;SDS011;10263;48.716;8.760;2023-04-03T08:21:19;3.60;;;2.43;;
20207;SDS011;10263;48.716;8.760;2023-04-03T08:23:47;1.80;;;1.67;;
20207;SDS011;10263;48.716;8.760;2023-04-03T08:26:17;2.37;;;1.90;;
20207;SDS011;10263;48.716;8.760;2023-04-03T08:28:45;4.40;;;2.13;;
20207;SDS011;10263;48.716;8.760;2023-04-03T08:31:14;2.37;;;2.10;;
20207;SDS011;10263;48.716;8.760;2023-04-03T08:33:43;4.63;;;1.80;;
20207;SDS011;10263;48.716;8.760;2023-04-03T08:36:16;3.07;;;2.10;;
20207;SDS011;10263;48.716;8.760;2023-04-03T08:38:45;2.90;;;2.00;;
20207;SDS011;10263;48.716;8.760;2023-04-03T08:41:14;4.43;;;2.00;;
20207;SDS011;10263;48.716;8.760;2023-04-03T08:43:52;2.77;;;1.77;;
20207;SDS011;10263;48.716;8.760;2023-04-03T08:46:25;2.23;;;2.03;;
20207;SDS011;10263;48.716;8.760;2023-04-03T08:49:02;1.43;;;1.33;;
20207;SDS011;10263;48.716;8.760;2023-04-03T08:51:29;2.27;;;1.90;;
20207;SDS011;10263;48.716;8.760;2023-04-03T08:53:59;2.33;;;1.97;;
20207;SDS011;10263;48.716;8.760;2023-04-03T08:56:30;3.10;;;2.13;;
20207;SDS011;10263;48.716;8.760;2023-04-03T08:59:01;1.77;;;1.67;;
20207;SDS011;10263;48.716;8.760;2023-04-03T09:01:33;2.20;;;1.70;;
20207;SDS011;10263;48.716;8.760;2023-04-03T09:04:02;2.10;;;1.90;;
20207;SDS011;10263;48.716;8.760;2023-04-03T09:06:36;3.70;;;2.10;;
20207;SDS011;10263;48.716;8.760;2023-04-03T09:09:08;3.60;;;1.90;;
20207;SDS011;10263;48.716;8.760;2023-04-03T09:11:44;4.37;;;2.00;;
20207;SDS011;10263;48.716;8.760;2023-04-03T09:14:22;2.77;;;1.70;;
20207;SDS011;10263;48.716;8.760;2023-04-03T09:16:54;2.60;;;1.90;;
20207;SDS011;10263;48.716;8.760;2023-04-03T09:19:31;4.60;;;1.93;;
20207;SDS011;10263;48.716;8.760;2023-04-03T09:22:10;2.13;;;1.90;;
20207;SDS011;10263;48.716;8.760;2023-04-03T09:24:43;3.20;;;1.80;;
20207;SDS011;10263;48.716;8.760;2023-04-03T09:27:13;1.80;;;1.70;;
20207;SDS011;10263;48.716;8.760;2023-04-03T09:29:41;4.20;;;2.17;;
20207;SDS011;10263;48.716;8.760;2023-04-03T09:32:22;3.63;;;1.80;;
20207;SDS011;10263;48.716;8.760;2023-04-03T09:34:53;3.70;;;1.80;;
20207;SDS011;10263;48.716;8.760;2023-04-03T09:37:36;2.37;;;1.70;;
20207;SDS011;10263;48.716;8.760;2023-04-03T09:40:05;2.10;;;1.80;;
20207;SDS011;10263;48.716;8.760;2023-04-03T09:42:54;3.37;;;1.60;;
20207;SDS011;10263;48.716;8.760;2023-04-03T09:45:25;2.93;;;2.00;;
20207;SDS011;10263;48.716;8.760;2023-04-03T09:48:03;1.77;;;1.60;;
20207;SDS011;10263;48.716;8.760;2023-04-03T09:50:33;3.93;;;1.53;;
20207;SDS011;10263;48.716;8.760;2023-04-03T09:53:04;1.67;;;1.57;;
20207;SDS011;10263;48.716;8.760;2023-04-03T09:55:33;2.20;;;1.63;;
20207;SDS011;10263;48.716;8.760;2023-04-03T09:58:22;2.80;;;1.70;;
20207;SDS011;10263;48.716;8.760;2023-04-03T10:00:57;2.33;;;1.40;;
20207;SDS011;10263;48.716;8.760;2023-04-03T10:03:27;4.73;;;1.90;;
20207;SDS011;10263;48.716;8.760;2023-04-03T10:05:56;2.40;;;1.73;;
20207;SDS011;10263;48.716;8.760;2023-04-03T10:08:25;3.47;;;1.67;;
20207;SDS011;10263;48.716;8.760;2023-04-03T10:11:05;1.57;;;1.47;;
20207;SDS011;10263;48.716;8.760;2023-04-03T10:13:53;3.00;;;1.43;;
20207;SDS011;10263;48.716;8.760;2023-04-03T10:16:26;1.90;;;1.60;;
20207;SDS011;10263;48.716;8.760;2023-04-03T10:21:55;1.93;;;1.57;;
20207;SDS011;10263;48.716;8.760;2023-04-03T10:24:28;2.43;;;1.43;;
20207;SDS011;10263;48.716;8.760;2023-04-03T10:27:02;1.83;;;1.50;;
20207;SDS011;10263;48.716;8.760;2023-04-03T10:29:39;3.50;;;1.70;;
20207;SDS011;10263;48.716;8.760;2023-04-03T10:35:11;2.03;;;1.23;;
20207;SDS011;10263;48.716;8.760;2023-04-03T10:37:51;4.03;;;1.60;;
20207;SDS011;10263;48.716;8.760;2023-04-03T10:40:28;2.23;;;1.50;;
20207;SDS011;10263;48.716;8.760;2023-04-03T10:43:00;2.53;;;1.63;;
20207;SDS011;10263;48.716;8.760;2023-04-03T10:45:34;1.40;;;1.30;;
20207;SDS011;10263;48.716;8.760;2023-04-03T10:48:18;2.30;;;1.63;;
20207;SDS011;10263;48.716;8.760;2023-04-03T10:50:54;1.93;;;1.40;;
20207;SDS011;10263;48.716;8.760;2023-04-03T10:53:28;2.37;;;1.53;;
20207;SDS011;10263;48.716;8.760;2023-04-03T10:55:59;1.30;;;1.20;;
20207;SDS011;10263;48.716;8.760;2023-04-03T10:58:34;1.63;;;1.37;;
20207;SDS011;10263;48.716;8.760;2023-04-03T11:01:06;2.40;;;1.43;;
20207;SDS011;10263;48.716;8.760;2023-04-03T11:03:38;2.00;;;1.47;;
20207;SDS011;10263;48.716;8.760;2023-04-03T11:06:07;2.27;;;1.20;;
20207;SDS011;10263;48.716;8.760;2023-04-03T11:08:37;1.43;;;1.20;;
20207;SDS011;10263;48.716;8.760;2023-04-03T11:11:11;2.17;;;1.27;;
20207;SDS011;10263;48.716;8.760;2023-04-03T11:13:41;2.03;;;1.63;;
20207;SDS011;10263;48.716;8.760;2023-04-03T11:16:13;2.50;;;1.60;;
20207;SDS011;10263;48.716;8.760;2023-04-03T11:18:47;1.23;;;1.13;;
20207;SDS011;10263;48.716;8.760;2023-04-03T11:21:19;1.40;;;1.30;;
20207;SDS011;10263;48.716;8.760;2023-04-03T11:23:49;1.33;;;1.23;;
20207;SDS011;10263;48.716;8.760;2023-04-03T11:26:19;3.47;;;1.60;;
20207;SDS011;10263;48.716;8.760;2023-04-03T11:28:53;1.10;;;1.00;;
20207;SDS011;10263;48.716;8.760;2023-04-03T11:31:38;1.80;;;1.13;;
20207;SDS011;10263;48.716;8.760;2023-04-03T11:34:17;1.50;;;1.10;;
20207;SDS011;10263;48.716;8.760;2023-04-03T11:36:53;2.50;;;1.47;;
20207;SDS011;10263;48.716;8.760;2023-04-03T11:39:23;1.97;;;1.33;;
20207;SDS011;10263;48.716;8.760;2023-04-03T11:41:53;1.93;;;1.30;;
20207;SDS011;10263;48.716;8.760;2023-04-03T11:44:29;1.63;;;1.10;;
20207;SDS011;10263;48.716;8.760;2023-04-03T11:47:00;3.60;;;1.27;;
20207;SDS011;10263;48.716;8.760;2023-04-03T11:55:41;2.60;;;1.73;;
20207;SDS011;10263;48.716;8.760;2023-04-03T11:58:14;2.57;;;1.40;;
20207;SDS011;10263;48.716;8.760;2023-04-03T12:12:30;3.43;;;1.47;;
20207;SDS011;10263;48.716;8.760;2023-04-03T12:17:47;1.30;;;1.13;;
20207;SDS011;10263;48.716;8.760;2023-04-03T12:23:24;1.67;;;1.07;;
20207;SDS011;10263;48.716;8.760;2023-04-03T12:25:52;3.17;;;1.60;;
20207;SDS011;10263;48.716;8.760;2023-04-03T12:28:28;2.93;;;1.20;;
20207;SDS011;10263;48.716;8.760;2023-04-03T12:30:55;1.47;;;1.30;;
20207;SDS011;10263;48.716;8.760;2023-04-03T12:33:24;1.30;;;1.07;;
20207;SDS011;10263;48.716;8.760;2023-04-03T12:36:04;1.83;;;1.00;;
20207;SDS011;10263;48.716;8.760;2023-04-03T12:38:41;2.23;;;1.40;;
20207;SDS011;10263;48.716;8.760;2023-04-03T12:41:19;1.20;;;1.10;;
20207;SDS011;10263;48.716;8.760;2023-04-03T12:44:00;1.40;;;1.20;;
20207;SDS011;10263;48.716;8.760;2023-04-03T12:46:36;1.30;;;1.20;;
20207;SDS011;10263;48.716;8.760;2023-04-03T12:49:12;2.27;;;1.20;;
20207;SDS011;10263;48.716;8.760;2023-04-03T12:51:48;2.43;;;1.33;;
20207;SDS011;10263;48.716;8.760;2023-04-03T12:54:19;1.50;;;1.30;;
20207;SDS011;10263;48.716;8.760;2023-04-03T12:56:49;2.10;;;1.57;;
20207;SDS011;10263;48.716;8.760;2023-04-03T12:59:18;1.03;;;0.80;;
20207;SDS011;10263;48.716;8.760;2023-04-03T13:01:52;2.67;;;1.70;;
20207;SDS011;10263;48.716;8.760;2023-04-03T13:04:20;1.30;;;1.20;;
20207;SDS011;10263;48.716;8.760;2023-04-03T13:06:47;2.13;;;1.30;;
20207;SDS011;10263;48.716;8.760;2023-04-03T13:09:20;2.60;;;1.30;;
20207;SDS011;10263;48.716;8.760;2023-04-03T13:11:51;3.10;;;1.00;;
20207;SDS011;10263;48.716;8.760;2023-04-03T13:14:23;2.17;;;1.60;;
20207;SDS011;10263;48.716;8.760;2023-04-03T13:16:53;1.37;;;1.20;;
20207;SDS011;10263;48.716;8.760;2023-04-03T13:19:22;2.23;;;1.30;;
20207;SDS011;10263;48.716;8.760;2023-04-03T13:21:51;1.50;;;1.10;;
20207;SDS011;10263;48.716;8.760;2023-04-03T13:24:24;4.20;;;1.20;;
20207;SDS011;10263;48.716;8.760;2023-04-03T13:26:51;2.33;;;1.30;;
20207;SDS011;10263;48.716;8.760;2023-04-03T13:29:21;1.43;;;1.30;;
20207;SDS011;10263;48.716;8.760;2023-04-03T13:31:52;2.00;;;1.17;;
20207;SDS011;10263;48.716;8.760;2023-04-03T13:34:20;2.33;;;1.60;;
20207;SDS011;10263;48.716;8.760;2023-04-03T13:36:54;2.03;;;1.30;;
20207;SDS011;10263;48.716;8.760;2023-04-03T13:39:25;1.40;;;1.30;;
20207;SDS011;10263;48.716;8.760;2023-04-03T13:41:54;2.73;;;1.17;;
20207;SDS011;10263;48.716;8.760;2023-04-03T13:44:30;1.73;;;1.30;;
20207;SDS011;10263;48.716;8.760;2023-04-03T13:46:59;2.07;;;0.97;;
20207;SDS011;10263;48.716;8.760;2023-04-03T13:49:40;1.93;;;1.17;;
20207;SDS011;10263;48.716;8.760;2023-04-03T13:52:21;2.30;;;1.40;;
20207;SDS011;10263;48.716;8.760;2023-04-03T13:54:52;1.70;;;1.13;;
20207;SDS011;10263;48.716;8.760;2023-04-03T13:57:22;2.73;;;1.13;;
20207;SDS011;10263;48.716;8.760;2023-04-03T13:59:50;3.57;;;1.40;;
20207;SDS011;10263;48.716;8.760;2023-04-03T14:02:18;2.87;;;1.57;;
20207;SDS011;10263;48.716;8.760;2023-04-03T14:04:50;1.73;;;1.10;;
20207;SDS011;10263;48.716;8.760;2023-04-03T14:07:21;1.70;;;1.40;;
20207;SDS011;10263;48.716;8.760;2023-04-03T14:09:49;2.00;;;1.23;;
20207;SDS011;10263;48.716;8.760;2023-04-03T14:12:19;2.50;;;1.60;;
20207;SDS011;10263;48.716;8.760;2023-04-03T14:14:53;1.50;;;1.40;;
20207;SDS011;10263;48.716;8.760;2023-04-03T14:17:21;1.53;;;1.20;;
20207;SDS011;10263;48.716;8.760;2023-04-03T14:19:50;2.43;;;1.20;;
20207;SDS011;10263;48.716;8.760;2023-04-03T14:22:19;3.10;;;1.23;;
20207;SDS011;10263;48.716;8.760;2023-04-03T14:24:48;2.07;;;1.20;;
20207;SDS011;10263;48.716;8.760;2023-04-03T14:27:18;1.57;;;1.20;;
20207;SDS011;10263;48.716;8.760;2023-04-03T14:29:47;1.97;;;1.40;;
20207;SDS011;10263;48.716;8.760;2023-04-03T14:32:15;3.97;;;1.57;;
20207;SDS011;10263;48.716;8.760;2023-04-03T14:34:43;3.03;;;1.23;;
20207;SDS011;10263;48.716;8.760;2023-04-03T14:37:11;1.20;;;1.07;;
20207;SDS011;10263;48.716;8.760;2023-04-03T14:39:39;1.43;;;1.30;;
20207;SDS011;10263;48.716;8.760;2023-04-03T14:42:09;2.90;;;1.20;;
20207;SDS011;10263;48.716;8.760;2023-04-03T14:44:40;1.40;;;1.30;;
20207;SDS011;10263;48.716;8.760;2023-04-03T14:47:09;1.33;;;1.20;;
20207;SDS011;10263;48.716;8.760;2023-04-03T14:49:37;5.10;;;1.23;;
20207;SDS011;10263;48.716;8.760;2023-04-03T14:52:04;1.33;;;1.17;;
20207;SDS011;10263;48.716;8.760;2023-04-03T14:54:31;1.57;;;1.30;;
20207;SDS011;10263;48.716;8.760;2023-04-03T14:56:59;2.73;;;1.30;;
20207;SDS011;10263;48.716;8.760;2023-04-03T14:59:27;2.07;;;1.30;;
20207;SDS011;10263;48.716;8.760;2023-04-03T15:01:56;1.47;;;1.20;;
20207;SDS011;10263;48.716;8.760;2023-04-03T15:04:22;1.90;;;1.23;;
20207;SDS011;10263;48.716;8.760;2023-04-03T15:06:52;1.30;;;1.20;;
20207;SDS011;10263;48.716;8.760;2023-04-03T15:09:20;1.33;;;1.03;;
20207;SDS011;10263;48.716;8.760;2023-04-03T15:11:49;2.27;;;1.30;;
20207;SDS011;10263;48.716;8.760;2023-04-03T15:14:16;1.83;;;1.13;;
20207;SDS011;10263;48.716;8.760;2023-04-03T15:16:43;2.93;;;1.20;;
20207;SDS011;10263;48.716;8.760;2023-04-03T15:19:12;1.73;;;1.20;;
20207;SDS011;10263;48.716;8.760;2023-04-03T15:21:39;1.87;;;0.90;;
20207;SDS011;10263;48.716;8.760;2023-04-03T15:24:06;1.43;;;1.20;;
20207;SDS011;10263;48.716;8.760;2023-04-03T15:26:33;3.03;;;1.13;;
20207;SDS011;10263;48.716;8.760;2023-04-03T15:29:00;2.10;;;1.30;;
20207;SDS011;10263;48.716;8.760;2023-04-03T15:31:28;1.50;;;1.30;;
20207;SDS011;10263;48.716;8.760;2023-04-03T15:33:56;1.40;;;1.30;;
20207;SDS011;10263;48.716;8.760;2023-04-03T15:36:24;1.70;;;1.30;;